Time;durP1;ratioP1;P1;durP2;ratioP2;P2;SDS_P1;SDS_P2;PMS_P1;PMS_P2;Temp;Humidity;BMP_temperature;BMP_pressure;BME280_temperature;BME280_humidity;BME280_pressure;Samples;Min_cycle;Max_cycle;Signal;HPM_P1;HPM_P2
2022/06/29 00:00:21;;;;;;;5.50;5.00;;;18.30;99.90;;;;;;5049209;28;20531;-69
2022/06/29 00:02:49;;;;;;;4.97;4.57;;;18.20;99.90;;;;;;5053166;28;20551;-70
2022/06/29 00:05:18;;;;;;;5.20;4.80;;;18.20;99.90;;;;;;5052430;28;20528;-70
2022/06/29 00:07:46;;;;;;;4.30;4.00;;;18.20;99.90;;;;;;5050379;28;20429;-70
2022/06/29 00:10:15;;;;;;;5.20;4.80;;;18.10;99.90;;;;;;5056500;28;20488;-69
2022/06/29 00:12:43;;;;;;;5.10;4.70;;;18.10;99.90;;;;;;5054350;28;20569;-69
2022/06/29 00:15:11;;;;;;;5.63;5.03;;;18.00;99.90;;;;;;5068832;28;20463;-69
2022/06/29 00:17:42;;;;;;;5.60;5.10;;;18.00;99.90;;;;;;5057486;28;20521;-70
2022/06/29 00:20:12;;;;;;;7.83;5.90;;;17.90;99.90;;;;;;5054632;28;20457;-70
2022/06/29 00:22:39;;;;;;;5.70;5.00;;;17.90;99.90;;;;;;5063474;28;20857;-70
2022/06/29 00:25:07;;;;;;;6.93;4.90;;;17.90;99.90;;;;;;5063789;28;20437;-70
2022/06/29 00:27:36;;;;;;;6.33;5.77;;;17.90;99.90;;;;;;5055659;28;20444;-70
2022/06/29 00:30:03;;;;;;;5.40;4.90;;;17.80;99.90;;;;;;5057090;28;20466;-71
2022/06/29 00:32:31;;;;;;;5.97;5.50;;;17.80;99.90;;;;;;5067483;28;21090;-70
2022/06/29 00:34:58;;;;;;;6.67;6.07;;;17.70;99.90;;;;;;5064501;28;20469;-70
2022/06/29 00:37:25;;;;;;;6.70;6.00;;;17.70;99.90;;;;;;5063850;28;20791;-70
2022/06/29 00:39:52;;;;;;;6.60;6.10;;;17.70;99.90;;;;;;5062209;28;20472;-70
2022/06/29 00:42:19;;;;;;;12.70;6.30;;;17.60;99.90;;;;;;5066775;28;20550;-69
2022/06/29 00:44:48;;;;;;;7.47;6.83;;;17.60;99.90;;;;;;5066229;28;20439;-70
2022/06/29 00:47:15;;;;;;;5.70;5.20;;;17.60;99.90;;;;;;5065151;28;20471;-69
2022/06/29 00:49:42;;;;;;;6.87;6.30;;;17.50;99.90;;;;;;5055578;28;20481;-70
2022/06/29 00:52:11;;;;;;;6.87;6.37;;;17.50;99.90;;;;;;5060098;28;20557;-69
2022/06/29 00:54:40;;;;;;;6.47;5.97;;;17.40;99.90;;;;;;5056827;28;20470;-71
2022/06/29 00:57:10;;;;;;;6.77;6.17;;;17.40;99.90;;;;;;5057438;28;20441;-70
2022/06/29 00:59:44;;;;;;;6.80;6.17;;;17.40;99.90;;;;;;5053814;28;20532;-70
2022/06/29 01:02:14;;;;;;;7.67;7.10;;;17.40;99.90;;;;;;5055622;28;20974;-71
2022/06/29 01:04:41;;;;;;;7.50;6.80;;;17.30;99.90;;;;;;5057542;28;20441;-69
2022/06/29 01:07:09;;;;;;;8.07;6.50;;;17.20;99.90;;;;;;5059837;28;20612;-67
2022/06/29 01:09:38;;;;;;;7.23;6.63;;;17.20;99.90;;;;;;5059709;28;20445;-72
2022/06/29 01:12:05;;;;;;;10.67;7.70;;;17.20;99.90;;;;;;5060529;28;20465;-71
2022/06/29 01:14:32;;;;;;;7.70;7.00;;;17.20;99.90;;;;;;5052185;28;20954;-70
2022/06/29 01:17:00;;;;;;;8.77;7.97;;;17.20;99.90;;;;;;5053833;28;20444;-70
2022/06/29 01:19:29;;;;;;;8.00;7.37;;;17.10;99.90;;;;;;5053362;28;20454;-70
2022/06/29 01:22:06;;;;;;;9.23;8.53;;;17.10;99.90;;;;;;5052333;28;21004;-71
2022/06/29 01:24:33;;;;;;;8.70;7.80;;;17.00;99.90;;;;;;5032655;28;20798;-70
2022/06/29 01:27:00;;;;;;;8.02;7.32;;;17.00;99.90;;;;;;5053341;28;20448;-69
2022/06/29 01:29:29;;;;;;;7.70;7.07;;;17.00;99.90;;;;;;5053713;28;20213;-70
2022/06/29 01:31:57;;;;;;;9.17;8.27;;;17.00;99.90;;;;;;5044813;28;20518;-70
2022/06/29 01:34:24;;;;;;;8.37;7.77;;;17.00;99.90;;;;;;5053658;28;20492;-70
2022/06/29 01:36:51;;;;;;;8.00;7.30;;;17.00;99.90;;;;;;5056476;28;20459;-70
2022/06/29 01:39:20;;;;;;;7.03;6.50;;;17.00;99.90;;;;;;5054031;28;20469;-70
2022/06/29 01:41:47;;;;;;;8.03;7.37;;;17.00;99.90;;;;;;5052648;28;20476;-70
2022/06/29 01:44:14;;;;;;;7.72;6.90;;;17.00;99.90;;;;;;5052843;28;20443;-69
2022/06/29 01:46:41;;;;;;;8.37;7.57;;;17.00;99.90;;;;;;5053108;28;20706;-69
2022/06/29 01:49:08;;;;;;;7.35;6.75;;;17.00;99.90;;;;;;5051479;28;20786;-70
2022/06/29 01:51:35;;;;;;;7.20;6.57;;;17.00;99.90;;;;;;5044171;28;20646;-70
2022/06/29 01:54:02;;;;;;;7.07;6.37;;;16.90;99.90;;;;;;5045420;28;20289;-71
2022/06/29 01:56:30;;;;;;;7.37;6.67;;;16.90;99.90;;;;;;5052116;28;20483;-70
2022/06/29 01:58:57;;;;;;;6.90;6.40;;;16.90;99.90;;;;;;5049866;28;20885;-70
2022/06/29 02:01:24;;;;;;;8.30;6.18;;;16.90;99.90;;;;;;5045817;28;20243;-70
2022/06/29 02:03:52;;;;;;;6.60;6.00;;;16.90;99.90;;;;;;5053557;28;20233;-70
2022/06/29 02:06:19;;;;;;;5.95;5.55;;;16.90;99.90;;;;;;5047178;28;20203;-70
2022/06/29 02:08:46;;;;;;;7.00;6.50;;;16.90;99.90;;;;;;5046201;28;20272;-70
2022/06/29 02:11:13;;;;;;;6.45;5.95;;;16.90;99.90;;;;;;5054975;28;20547;-70
2022/06/29 02:13:41;;;;;;;8.60;7.55;;;16.80;99.90;;;;;;5050341;28;20769;-70
2022/06/29 02:16:08;;;;;;;7.70;6.90;;;16.80;99.90;;;;;;5055113;28;20602;-70
2022/06/29 02:18:36;;;;;;;6.67;6.00;;;16.70;99.90;;;;;;5048137;28;20489;-70
2022/06/29 02:21:03;;;;;;;6.73;6.13;;;16.80;99.90;;;;;;5052347;28;20522;-71
2022/06/29 02:23:30;;;;;;;6.57;6.07;;;16.70;99.90;;;;;;5052769;28;20436;-70
2022/06/29 02:25:57;;;;;;;7.03;6.43;;;16.70;99.90;;;;;;5052803;28;20437;-70
2022/06/29 02:28:24;;;;;;;6.53;5.97;;;16.70;99.90;;;;;;5052497;28;20535;-70
2022/06/29 02:36:21;;;;;;;8.75;5.72;;;16.70;99.90;;;;;;5050970;28;20254;-71
2022/06/29 02:38:47;;;;;;;6.05;5.55;;;16.70;99.90;;;;;;5051357;28;20225;-70
2022/06/29 02:41:14;;;;;;;6.90;6.20;;;16.70;99.90;;;;;;5045649;28;20217;-71
2022/06/29 02:43:41;;;;;;;6.07;5.33;;;16.60;99.90;;;;;;5044176;28;20197;-70
2022/06/29 02:46:10;;;;;;;6.63;6.13;;;16.70;99.90;;;;;;5048844;28;20467;-71
2022/06/29 02:48:38;;;;;;;5.60;5.20;;;16.70;99.90;;;;;;5045626;28;20283;-70
2022/06/29 02:51:05;;;;;;;6.40;5.80;;;16.70;99.90;;;;;;5049592;28;20535;-71
2022/06/29 02:53:32;;;;;;;5.80;5.30;;;16.60;99.90;;;;;;5059846;28;20487;-70
2022/06/29 02:56:00;;;;;;;6.75;6.25;;;16.60;99.90;;;;;;5052267;28;20201;-71
2022/06/29 02:58:26;;;;;;;9.27;5.30;;;16.60;99.90;;;;;;5052355;28;20291;-70
2022/06/29 03:00:53;;;;;;;7.95;6.05;;;16.60;99.90;;;;;;5051875;28;20233;-72
2022/06/29 03:03:22;;;;;;;7.07;6.13;;;16.60;99.90;;;;;;5047613;28;20250;-71
2022/06/29 03:05:51;;;;;;;5.90;5.33;;;16.60;99.90;;;;;;5052456;28;20192;-69
2022/06/29 03:08:18;;;;;;;6.25;5.35;;;16.60;99.90;;;;;;5045558;28;20479;-71
2022/06/29 03:10:45;;;;;;;5.88;5.40;;;16.70;99.90;;;;;;5043825;28;20236;-69
2022/06/29 03:13:12;;;;;;;8.30;5.80;;;16.60;99.90;;;;;;5052414;28;20285;-70
2022/06/29 03:15:39;;;;;;;6.68;6.07;;;16.60;99.90;;;;;;5052486;28;20478;-70
2022/06/29 03:18:06;;;;;;;6.10;5.60;;;16.60;99.90;;;;;;5063087;28;20201;-70
2022/06/29 03:20:35;;;;;;;6.18;5.57;;;16.60;99.90;;;;;;5054837;28;20292;-71
2022/06/29 03:23:02;;;;;;;7.40;5.23;;;16.60;99.90;;;;;;5048970;28;20195;-70
2022/06/29 03:25:29;;;;;;;5.90;5.40;;;16.60;99.90;;;;;;5052084;28;20431;-70
2022/06/29 03:27:56;;;;;;;5.73;5.10;;;16.60;99.90;;;;;;5055456;28;20434;-70
2022/06/29 03:30:23;;;;;;;6.67;5.20;;;16.60;99.90;;;;;;5056140;28;20476;-70
2022/06/29 03:32:49;;;;;;;6.20;5.60;;;16.70;99.90;;;;;;5057978;28;20546;-70
2022/06/29 03:35:16;;;;;;;5.47;5.07;;;16.70;99.90;;;;;;5055570;28;20542;-70
2022/06/29 03:37:46;;;;;;;5.33;4.80;;;16.80;99.90;;;;;;5054461;28;20537;-70
2022/06/29 03:40:13;;;;;;;5.70;5.10;;;16.90;99.90;;;;;;5051623;28;20450;-71
2022/06/29 03:42:40;;;;;;;7.53;6.93;;;16.90;99.90;;;;;;5051312;28;20535;-70
2022/06/29 03:45:08;;;;;;;6.90;6.17;;;16.90;99.90;;;;;;5052272;28;20511;-71
2022/06/29 03:47:35;;;;;;;5.43;5.00;;;16.90;99.90;;;;;;5056723;28;20475;-70
2022/06/29 03:50:02;;;;;;;5.60;5.20;;;16.90;99.90;;;;;;5051822;28;20551;-70
2022/06/29 03:52:29;;;;;;;5.30;4.90;;;16.90;99.90;;;;;;5055341;28;20461;-70
2022/06/29 03:54:57;;;;;;;6.95;5.53;;;16.90;99.90;;;;;;5054609;28;20479;-70
2022/06/29 03:57:24;;;;;;;6.17;5.57;;;16.90;99.90;;;;;;5053560;28;20205;-69
2022/06/29 03:59:51;;;;;;;5.40;5.00;;;16.90;99.90;;;;;;5055706;28;20487;-68
2022/06/29 04:02:18;;;;;;;6.30;5.70;;;16.90;99.90;;;;;;5056979;28;20541;-70
2022/06/29 04:04:45;;;;;;;6.53;6.03;;;16.90;99.90;;;;;;5059231;28;20440;-70
2022/06/29 04:07:12;;;;;;;6.63;5.50;;;17.00;99.90;;;;;;5054121;28;20237;-72
2022/06/29 04:09:39;;;;;;;4.80;4.40;;;17.00;99.90;;;;;;5057764;28;20492;-70
2022/06/29 04:12:09;;;;;;;6.83;5.83;;;17.00;99.90;;;;;;5062659;28;20524;-70
2022/06/29 04:14:36;;;;;;;5.80;5.20;;;17.00;99.90;;;;;;5065551;28;20516;-69
2022/06/29 04:17:04;;;;;;;5.40;5.00;;;17.00;99.90;;;;;;5067568;28;20477;-71
2022/06/29 04:19:31;;;;;;;5.40;4.90;;;17.00;99.90;;;;;;5060943;28;20869;-71
2022/06/29 04:21:58;;;;;;;7.55;5.20;;;17.10;99.90;;;;;;5046014;28;20229;-70
2022/06/29 04:24:25;;;;;;;5.00;4.60;;;17.20;99.90;;;;;;5050644;28;20191;-71
2022/06/29 04:26:52;;;;;;;4.90;4.43;;;17.20;99.90;;;;;;5058960;28;20879;-71
2022/06/29 04:29:20;;;;;;;4.23;3.90;;;17.30;99.90;;;;;;5056342;28;20535;-71
2022/06/29 04:31:47;;;;;;;5.40;4.93;;;17.30;99.90;;;;;;5054134;28;20885;-70
2022/06/29 04:34:14;;;;;;;5.63;5.13;;;17.40;99.90;;;;;;5052462;28;20463;-71
2022/06/29 04:36:41;;;;;;;5.47;4.97;;;17.50;99.90;;;;;;5048991;28;20534;-71
2022/06/29 04:39:08;;;;;;;4.87;4.47;;;17.60;99.90;;;;;;5053542;28;20530;-69
2022/06/29 04:41:35;;;;;;;5.30;4.80;;;17.80;99.90;;;;;;5050364;28;20585;-69
2022/06/29 04:44:02;;;;;;;4.80;4.40;;;17.90;99.90;;;;;;5054989;28;20477;-69
2022/06/29 04:46:31;;;;;;;5.97;4.97;;;18.00;99.90;;;;;;5051870;28;20438;-71
2022/06/29 04:48:59;;;;;;;5.23;4.80;;;18.10;99.90;;;;;;5045455;28;20454;-69
2022/06/29 04:51:29;;;;;;;5.97;5.37;;;18.10;99.90;;;;;;5055104;28;20461;-70
2022/06/29 04:53:57;;;;;;;5.50;4.73;;;18.10;99.90;;;;;;5054829;28;20785;-71
2022/06/29 04:56:26;;;;;;;5.60;4.90;;;18.30;99.90;;;;;;5054069;28;20470;-70
2022/06/29 04:58:54;;;;;;;4.87;4.37;;;18.60;99.90;;;;;;5052791;28;20985;-70
2022/06/29 05:01:22;;;;;;;5.33;4.90;;;18.80;99.90;;;;;;5053118;28;20462;-71
2022/06/29 05:03:50;;;;;;;6.27;5.70;;;19.00;99.90;;;;;;5054101;28;20520;-72
2022/06/29 05:06:18;;;;;;;8.53;4.63;;;19.20;99.90;;;;;;5047990;28;20521;-70
2022/06/29 05:08:45;;;;;;;6.10;4.80;;;19.40;99.90;;;;;;5049310;28;20470;-71
2022/06/29 05:11:14;;;;;;;4.50;4.10;;;19.60;99.90;;;;;;5051895;28;20550;-71
2022/06/29 05:13:41;;;;;;;4.93;4.00;;;19.80;99.90;;;;;;5047169;28;20598;-72
2022/06/29 05:16:08;;;;;;;5.00;4.00;;;20.00;99.90;;;;;;5053890;28;20840;-71
2022/06/29 05:18:37;;;;;;;9.63;6.43;;;20.20;99.90;;;;;;5054159;28;20600;-73
2022/06/29 05:21:06;;;;;;;9.90;5.33;;;20.30;99.90;;;;;;5052770;28;20455;-72
2022/06/29 05:23:33;;;;;;;6.77;4.40;;;20.50;99.90;;;;;;5046780;28;20442;-70
2022/06/29 05:26:01;;;;;;;5.93;4.00;;;20.70;99.90;;;;;;5053959;28;20525;-70
2022/06/29 05:28:27;;;;;;;7.10;4.57;;;21.10;99.90;;;;;;5051879;28;20912;-70
2022/06/29 05:30:57;;;;;;;8.03;4.20;;;21.40;99.90;;;;;;5058125;28;20483;-71
2022/06/29 05:33:23;;;;;;;5.93;3.80;;;22.00;99.90;;;;;;5046504;28;20427;-72
2022/06/29 05:35:51;;;;;;;7.30;3.77;;;22.60;99.90;;;;;;5046683;28;20570;-72
2022/06/29 05:38:20;;;;;;;4.00;3.30;;;23.30;98.70;;;;;;5047116;28;20471;-72
2022/06/29 05:40:49;;;;;;;6.33;4.47;;;23.90;97.10;;;;;;5045684;28;20474;-71
2022/06/29 05:43:16;;;;;;;6.17;3.80;;;24.00;95.90;;;;;;5046760;28;20518;-73
2022/06/29 05:45:43;;;;;;;3.77;3.40;;;24.10;95.60;;;;;;5048441;28;20781;-72
2022/06/29 05:48:10;;;;;;;3.60;3.30;;;24.20;95.10;;;;;;5045627;28;20444;-72
2022/06/29 05:50:37;;;;;;;4.43;3.50;;;24.00;95.10;;;;;;5050037;28;20434;-72
2022/06/29 05:53:04;;;;;;;4.83;4.43;;;23.80;95.60;;;;;;5047076;28;20434;-73
2022/06/29 05:55:32;;;;;;;5.77;3.70;;;23.60;95.90;;;;;;5044985;28;20545;-72
2022/06/29 05:58:00;;;;;;;7.80;3.50;;;23.40;96.40;;;;;;5055406;28;20481;-71
2022/06/29 06:00:27;;;;;;;4.27;3.77;;;23.20;97.10;;;;;;5056473;28;20533;-72
2022/06/29 06:02:56;;;;;;;6.00;4.30;;;22.90;97.50;;;;;;5056568;28;20470;-72
2022/06/29 06:05:23;;;;;;;4.50;3.47;;;22.80;98.30;;;;;;5054797;28;20521;-72
2022/06/29 06:07:51;;;;;;;4.27;3.93;;;22.80;98.30;;;;;;5048825;28;20524;-72
2022/06/29 06:10:18;;;;;;;3.10;2.90;;;22.60;98.50;;;;;;5052962;28;20442;-72
2022/06/29 06:12:46;;;;;;;4.60;3.73;;;22.70;98.70;;;;;;5053699;28;20462;-72
2022/06/29 06:15:13;;;;;;;5.93;3.83;;;22.90;98.60;;;;;;5068274;28;20522;-72
2022/06/29 06:17:40;;;;;;;5.23;3.90;;;23.30;97.90;;;;;;5053357;28;20992;-72
2022/06/29 06:20:09;;;;;;;6.03;3.63;;;23.70;97.00;;;;;;5053356;28;20446;-71
2022/06/29 06:22:36;;;;;;;3.77;3.43;;;24.30;96.10;;;;;;5046017;28;20466;-73
2022/06/29 06:25:03;;;;;;;3.53;3.20;;;25.10;94.40;;;;;;5053721;28;20513;-71
2022/06/29 06:27:30;;;;;;;3.50;3.20;;;25.30;93.20;;;;;;5046969;28;20526;-72
2022/06/29 06:30:00;;;;;;;3.47;3.17;;;25.50;92.70;;;;;;5044648;28;20517;-70
2022/06/29 06:32:27;;;;;;;4.00;3.00;;;25.80;92.50;;;;;;5044348;28;20999;-70
2022/06/29 06:34:55;;;;;;;3.60;2.90;;;25.80;91.90;;;;;;5052343;28;20516;-73
2022/06/29 06:37:22;;;;;;;3.13;2.80;;;25.70;92.20;;;;;;5051758;28;20446;-69
2022/06/29 06:42:30;;;;;;;4.30;3.43;;;26.60;91.30;;;;;;5046313;28;20446;-71
2022/06/29 06:44:57;;;;;;;4.10;3.80;;;26.50;91.00;;;;;;5051999;28;20907;-72
2022/06/29 06:47:26;;;;;;;5.70;3.27;;;26.70;90.80;;;;;;5049484;28;20628;-72
2022/06/29 06:49:53;;;;;;;4.70;3.20;;;26.70;90.30;;;;;;5042556;28;20503;-72
2022/06/29 06:52:20;;;;;;;5.93;3.90;;;27.10;90.10;;;;;;5051833;28;20490;-71
2022/06/29 06:54:47;;;;;;;4.63;3.30;;;27.40;88.60;;;;;;5052067;28;20552;-72
2022/06/29 06:57:14;;;;;;;7.50;3.53;;;27.60;87.90;;;;;;5052645;28;20438;-73
2022/06/29 06:59:42;;;;;;;4.87;3.73;;;27.80;87.20;;;;;;5051454;28;20489;-71
2022/06/29 07:02:10;;;;;;;5.00;4.00;;;27.60;86.80;;;;;;5049468;28;20462;-71
2022/06/29 07:04:41;;;;;;;7.87;3.90;;;27.10;88.00;;;;;;5052760;28;20462;-71
2022/06/29 07:07:11;;;;;;;5.07;3.57;;;26.60;89.30;;;;;;5052833;28;20519;-73
2022/06/29 07:09:38;;;;;;;3.87;3.40;;;26.40;90.30;;;;;;5060632;28;20440;-72
2022/06/29 07:12:07;;;;;;;5.53;4.20;;;26.30;90.50;;;;;;5053647;28;20464;-73
2022/06/29 07:14:34;;;;;;;6.97;3.60;;;26.30;90.30;;;;;;5052937;28;20528;-72
2022/06/29 07:17:01;;;;;;;3.63;3.33;;;26.00;90.80;;;;;;5052824;28;20520;-73
2022/06/29 07:19:28;;;;;;;3.33;3.03;;;25.90;91.40;;;;;;5053143;28;20465;-73
2022/06/29 07:22:05;;;;;;;5.37;3.80;;;25.80;91.50;;;;;;5055147;28;20466;-75
2022/06/29 07:24:32;;;;;;;4.87;3.43;;;25.60;91.30;;;;;;5046037;28;20471;-71
2022/06/29 07:27:02;;;;;;;4.60;4.20;;;25.40;91.70;;;;;;5050482;28;20468;-71
2022/06/29 07:29:30;;;;;;;4.43;4.00;;;25.20;92.20;;;;;;5053608;28;20522;-71
2022/06/29 07:31:57;;;;;;;3.87;3.40;;;25.10;92.80;;;;;;5052155;28;20971;-70
2022/06/29 07:34:25;;;;;;;3.97;3.63;;;25.40;92.80;;;;;;5052735;28;20426;-70
2022/06/29 07:36:52;;;;;;;3.83;3.40;;;25.60;92.30;;;;;;5049096;28;21071;-72
2022/06/29 07:39:21;;;;;;;4.47;4.07;;;25.80;91.90;;;;;;5045061;28;20930;-70
2022/06/29 07:41:48;;;;;;;7.43;3.77;;;25.60;92.20;;;;;;5046964;28;20818;-71
2022/06/29 07:44:16;;;;;;;5.37;3.60;;;25.70;92.40;;;;;;5052206;28;20445;-72
2022/06/29 07:46:42;;;;;;;4.00;3.60;;;26.00;92.20;;;;;;5051202;28;20438;-71
2022/06/29 07:49:09;;;;;;;6.83;3.87;;;26.60;91.80;;;;;;5048998;28;20430;-73
2022/06/29 07:51:36;;;;;;;4.10;3.70;;;27.30;90.00;;;;;;5052163;28;20476;-72
2022/06/29 07:54:04;;;;;;;7.87;3.80;;;27.40;87.30;;;;;;5058558;28;20462;-72
2022/06/29 07:56:33;;;;;;;5.83;3.00;;;27.40;86.10;;;;;;5052104;28;20512;-72
2022/06/29 07:59:01;;;;;;;4.13;3.07;;;27.80;86.10;;;;;;5046129;28;20781;-73
2022/06/29 08:01:28;;;;;;;4.97;3.70;;;27.90;84.40;;;;;;5047179;28;20524;-71
2022/06/29 08:03:56;;;;;;;5.87;3.40;;;27.70;84.80;;;;;;5051089;28;20434;-71
2022/06/29 08:06:23;;;;;;;8.37;4.00;;;27.70;85.50;;;;;;5054223;28;20521;-70
2022/06/29 08:08:50;;;;;;;5.30;3.33;;;27.60;85.20;;;;;;5055859;28;20448;-71
2022/06/29 08:11:17;;;;;;;4.60;4.13;;;27.50;85.70;;;;;;5054561;28;20461;-72
2022/06/29 08:13:45;;;;;;;6.73;4.20;;;27.20;87.50;;;;;;5055544;28;20454;-71
2022/06/29 08:16:12;;;;;;;6.53;3.50;;;27.20;87.50;;;;;;5054784;28;20484;-73
2022/06/29 08:18:40;;;;;;;5.03;3.10;;;28.00;87.10;;;;;;5053152;28;20434;-72
2022/06/29 08:21:07;;;;;;;2.93;2.70;;;30.00;83.10;;;;;;5054893;28;20986;-73
2022/06/29 08:23:34;;;;;;;5.80;3.60;;;31.70;78.10;;;;;;5046784;28;20484;-72
2022/06/29 08:26:01;;;;;;;6.20;3.70;;;33.20;74.10;;;;;;5054170;28;20854;-73
2022/06/29 08:28:28;;;;;;;4.77;3.93;;;33.90;70.80;;;;;;5054552;28;20525;-73
2022/06/29 08:30:57;;;;;;;7.00;3.53;;;34.80;68.40;;;;;;5053344;28;20437;-70
2022/06/29 08:33:25;;;;;;;4.83;4.17;;;35.40;66.10;;;;;;5054799;28;21178;-72
2022/06/29 08:35:52;;;;;;;4.37;4.07;;;35.70;63.90;;;;;;5054515;28;20832;-72
2022/06/29 08:38:20;;;;;;;9.70;5.00;;;35.70;63.10;;;;;;5052627;28;20530;-72
2022/06/29 08:40:49;;;;;;;4.47;4.07;;;35.50;62.60;;;;;;5053749;28;20971;-71
2022/06/29 08:43:18;;;;;;;5.43;3.60;;;35.40;62.50;;;;;;5047662;28;20912;-73
2022/06/29 08:45:48;;;;;;;7.67;4.27;;;35.30;62.50;;;;;;5054351;28;20441;-71
2022/06/29 08:48:18;;;;;;;8.33;4.33;;;35.60;61.80;;;;;;5047143;28;20525;-71
2022/06/29 08:50:50;;;;;;;5.63;4.63;;;35.70;60.40;;;;;;5047301;28;20430;-70
2022/06/29 08:53:18;;;;;;;5.47;4.90;;;35.00;62.00;;;;;;5049686;28;20844;-71
2022/06/29 08:55:47;;;;;;;4.13;3.73;;;34.60;63.00;;;;;;5055001;28;20492;-71
2022/06/29 08:58:17;;;;;;;6.50;4.90;;;34.30;63.90;;;;;;5053987;28;20533;-72
2022/06/29 09:00:45;;;;;;;5.23;4.70;;;34.20;64.40;;;;;;5053187;28;20533;-72
2022/06/29 09:03:15;;;;;;;9.40;4.53;;;34.10;63.60;;;;;;5053827;28;20916;-70
2022/06/29 09:05:49;;;;;;;5.37;4.90;;;34.20;64.20;;;;;;5051046;28;21071;-72
2022/06/29 09:08:16;;;;;;;7.03;4.97;;;34.30;63.90;;;;;;5050668;28;20450;-70
2022/06/29 09:10:44;;;;;;;5.10;4.60;;;34.10;64.10;;;;;;5047867;28;20449;-72
2022/06/29 09:13:12;;;;;;;5.63;5.07;;;33.60;65.50;;;;;;5053887;28;20846;-70
2022/06/29 09:15:41;;;;;;;5.40;4.90;;;33.50;65.70;;;;;;5050547;28;20543;-71
2022/06/29 09:18:25;;;;;;;5.43;4.90;;;33.50;66.00;;;;;;5049261;28;20895;-71
2022/06/29 09:20:59;;;;;;;4.90;4.40;;;33.40;66.40;;;;;;5047632;28;20445;-71
2022/06/29 09:23:27;;;;;;;5.80;5.20;;;33.60;66.10;;;;;;5048123;28;20442;-71
2022/06/29 09:25:55;;;;;;;5.43;4.50;;;34.20;65.50;;;;;;5044639;28;20445;-71
2022/06/29 09:28:25;;;;;;;5.40;4.90;;;34.20;65.30;;;;;;5053525;28;20496;-71
2022/06/29 09:30:53;;;;;;;4.43;3.50;;;34.30;65.20;;;;;;5054088;28;20861;-70
2022/06/29 09:33:21;;;;;;;4.80;4.40;;;34.60;64.40;;;;;;5053985;28;20438;-71
2022/06/29 09:36:13;;;;;;;5.00;4.53;;;34.30;65.20;;;;;;5054672;28;20466;-70
2022/06/29 09:38:40;;;;;;;5.00;4.60;;;33.40;66.20;;;;;;5052734;28;20563;-71
2022/06/29 09:41:09;;;;;;;5.27;4.27;;;33.80;65.30;;;;;;5055369;28;20544;-69
2022/06/29 09:43:38;;;;;;;4.80;4.40;;;34.00;64.90;;;;;;5055893;28;20517;-71
2022/06/29 09:46:07;;;;;;;5.30;4.80;;;33.80;64.60;;;;;;5053591;28;21030;-71
2022/06/29 09:48:37;;;;;;;4.73;4.33;;;33.50;65.70;;;;;;5049730;28;20784;-71
2022/06/29 09:53:51;;;;;;;5.33;4.83;;;33.50;66.10;;;;;;5048371;28;20429;-72
2022/06/29 09:56:21;;;;;;;4.97;4.57;;;33.30;66.70;;;;;;5057835;28;20476;-72
2022/06/29 09:58:50;;;;;;;5.20;4.77;;;33.40;66.90;;;;;;5061507;28;20449;-72
2022/06/29 10:04:05;;;;;;;5.80;3.77;;;33.20;67.00;;;;;;5063393;28;20774;-72
2022/06/29 10:06:33;;;;;;;5.20;4.80;;;33.40;66.20;;;;;;5054053;28;20454;-72
2022/06/29 10:09:02;;;;;;;5.30;4.87;;;32.80;68.00;;;;;;5057150;28;20448;-72
2022/06/29 10:15:06;;;;;;;4.53;4.10;;;32.40;67.00;;;;;;5053636;28;20883;-74
2022/06/29 10:17:55;;;;;;;5.53;5.03;;;33.00;65.70;;;;;;5051808;28;20462;-71
2022/06/29 10:20:45;;;;;;;4.70;4.30;;;33.00;64.40;;;;;;5035704;28;20438;-72
2022/06/29 10:23:46;;;;;;;4.27;3.97;;;32.60;64.60;;;;;;5041040;28;20450;-72
2022/06/29 10:26:43;;;;;;;5.53;4.80;;;33.00;64.20;;;;;;5053399;28;20426;-73
2022/06/29 10:29:36;;;;;;;4.60;4.20;;;32.20;64.10;;;;;;5050310;28;20467;-71
2022/06/29 10:32:21;;;;;;;4.63;4.23;;;31.70;65.50;;;;;;5052807;28;20545;-72
2022/06/29 10:37:56;;;;;;;5.23;4.10;;;31.20;65.30;;;;;;5050798;28;20846;-72
2022/06/29 10:40:25;;;;;;;4.40;4.00;;;31.30;65.20;;;;;;5037001;28;20497;-71
2022/06/29 10:43:10;;;;;;;5.03;3.47;;;31.40;65.40;;;;;;5050603;28;20873;-70
2022/06/29 10:45:44;;;;;;;4.30;4.00;;;31.20;65.00;;;;;;5046780;28;20454;-72
2022/06/29 10:48:20;;;;;;;4.30;3.73;;;31.00;65.50;;;;;;5048066;28;20937;-71
2022/06/29 10:50:47;;;;;;;5.27;4.07;;;30.60;66.40;;;;;;5058240;28;20476;-72
2022/06/29 10:53:17;;;;;;;6.03;4.27;;;30.20;66.80;;;;;;5052577;28;20438;-72
2022/06/29 10:55:56;;;;;;;6.63;4.97;;;29.90;68.00;;;;;;5057021;28;20525;-70
2022/06/29 10:58:54;;;;;;;4.47;4.10;;;29.60;68.90;;;;;;5053858;28;20449;-73
2022/06/29 11:01:21;;;;;;;4.43;4.03;;;29.40;69.10;;;;;;5044724;28;20467;-72
2022/06/29 11:03:53;;;;;;;4.67;4.00;;;29.50;69.30;;;;;;5051759;28;20529;-71
2022/06/29 11:12:04;;;;;;;6.53;4.17;;;29.40;69.80;;;;;;5052231;28;20864;-72
2022/06/29 11:19:58;;;;;;;5.90;3.67;;;29.60;70.40;;;;;;5053625;28;20520;-71
2022/06/29 11:22:25;;;;;;;5.10;4.60;;;29.70;70.00;;;;;;5046278;28;20458;-73
2022/06/29 11:24:58;;;;;;;4.20;3.10;;;29.70;69.60;;;;;;5052041;28;20473;-73
2022/06/29 11:27:36;;;;;;;3.93;3.37;;;29.60;69.90;;;;;;5052302;28;20434;-73
2022/06/29 11:30:07;;;;;;;3.63;3.33;;;29.30;70.70;;;;;;5051110;28;20437;-71
2022/06/29 11:32:37;;;;;;;3.20;2.90;;;29.10;71.00;;;;;;5043656;28;20802;-71
2022/06/29 11:35:06;;;;;;;3.77;3.47;;;29.20;70.90;;;;;;5052081;28;20472;-72
2022/06/29 11:37:33;;;;;;;3.43;3.10;;;29.20;70.30;;;;;;5051970;28;20736;-72
2022/06/29 11:40:00;;;;;;;4.07;3.23;;;29.40;69.90;;;;;;5054599;28;20446;-71
2022/06/29 11:45:37;;;;;;;4.47;3.53;;;29.20;68.40;;;;;;5039853;28;20430;-71
2022/06/29 11:48:12;;;;;;;4.00;3.70;;;29.20;68.10;;;;;;5035345;28;20465;-71
2022/06/29 11:50:48;;;;;;;4.13;3.60;;;29.10;67.20;;;;;;5033060;28;20577;-72
2022/06/29 11:53:35;;;;;;;3.83;3.30;;;28.80;67.30;;;;;;5054994;28;20907;-70
2022/06/29 11:56:02;;;;;;;3.17;2.87;;;28.80;67.90;;;;;;5050742;28;20841;-72
2022/06/29 11:58:29;;;;;;;4.50;2.87;;;29.20;67.20;;;;;;5055306;28;20488;-72
2022/06/29 12:00:57;;;;;;;4.13;2.67;;;29.50;66.20;;;;;;5051389;28;20474;-70
2022/06/29 12:03:24;;;;;;;3.43;2.50;;;29.60;65.30;;;;;;5055621;28;20473;-71
2022/06/29 12:05:58;;;;;;;3.13;2.93;;;29.70;65.20;;;;;;5051324;28;20525;-71
2022/06/29 12:08:26;;;;;;;3.40;3.10;;;30.00;65.60;;;;;;5054949;28;20445;-71
2022/06/29 12:10:53;;;;;;;5.40;3.30;;;30.30;65.70;;;;;;5049168;28;20443;-73
2022/06/29 12:13:20;;;;;;;4.27;3.30;;;30.40;64.80;;;;;;5049964;28;20443;-71
2022/06/29 12:15:47;;;;;;;3.27;2.83;;;29.90;64.90;;;;;;5058929;28;20508;-70
2022/06/29 12:18:16;;;;;;;3.07;2.60;;;30.20;63.70;;;;;;5056025;28;20513;-72
2022/06/29 12:20:43;;;;;;;3.00;2.37;;;30.20;62.40;;;;;;5053508;28;20545;-72
2022/06/29 12:23:10;;;;;;;2.80;2.50;;;29.90;62.50;;;;;;5057966;28;20530;-71
2022/06/29 12:25:37;;;;;;;3.70;3.13;;;29.80;64.00;;;;;;5047774;28;20971;-71
2022/06/29 12:28:04;;;;;;;8.23;4.53;;;29.60;65.00;;;;;;5044510;28;20443;-72
2022/06/29 12:30:31;;;;;;;5.83;4.10;;;29.50;66.50;;;;;;5050871;28;20438;-70
2022/06/29 12:32:58;;;;;;;6.50;3.53;;;29.60;67.40;;;;;;5047656;28;20471;-72
2022/06/29 12:35:26;;;;;;;5.20;3.30;;;29.60;67.60;;;;;;5050589;28;20470;-71
2022/06/29 12:37:57;;;;;;;4.43;3.70;;;29.40;68.30;;;;;;5048765;28;20551;-71
2022/06/29 12:40:25;;;;;;;3.53;3.23;;;29.50;68.30;;;;;;5045100;28;20522;-71
2022/06/29 12:42:52;;;;;;;4.30;3.90;;;29.40;67.50;;;;;;5050170;28;20480;-71
2022/06/29 12:45:19;;;;;;;3.57;3.27;;;29.20;67.60;;;;;;5046669;28;20434;-72
2022/06/29 12:47:47;;;;;;;3.20;2.90;;;29.10;68.00;;;;;;5059889;28;20433;-71
2022/06/29 12:50:14;;;;;;;4.30;3.37;;;29.30;67.60;;;;;;5049025;28;20478;-74
2022/06/29 12:52:46;;;;;;;9.20;4.33;;;29.30;67.40;;;;;;5045374;28;20500;-71
2022/06/29 12:55:13;;;;;;;3.37;2.93;;;29.00;68.00;;;;;;5049246;28;20795;-72
2022/06/29 12:57:40;;;;;;;6.33;2.77;;;29.00;68.70;;;;;;5050544;28;20564;-71
2022/06/29 13:00:09;;;;;;;4.47;2.80;;;29.10;68.90;;;;;;5053294;28;20503;-72
2022/06/29 13:02:37;;;;;;;2.50;1.90;;;28.90;69.10;;;;;;5048117;28;20541;-71
2022/06/29 13:05:04;;;;;;;4.00;2.67;;;28.80;68.90;;;;;;5053634;28;20478;-71
2022/06/29 13:07:32;;;;;;;4.00;3.60;;;28.80;69.30;;;;;;5052780;28;20438;-72
2022/06/29 13:10:01;;;;;;;3.10;2.70;;;28.80;68.20;;;;;;5051037;28;20974;-71
2022/06/29 13:12:28;;;;;;;3.33;2.90;;;28.90;68.00;;;;;;5048802;28;20552;-73
2022/06/29 13:14:55;;;;;;;4.30;2.67;;;28.80;67.40;;;;;;5051907;28;20446;-72
2022/06/29 13:17:22;;;;;;;4.30;2.70;;;28.90;66.90;;;;;;5048983;28;20502;-72
2022/06/29 13:19:49;;;;;;;2.67;2.30;;;28.80;67.40;;;;;;5050810;28;20982;-71
2022/06/29 13:22:17;;;;;;;2.57;2.37;;;28.80;66.80;;;;;;5053938;28;20994;-71
2022/06/29 13:24:44;;;;;;;2.70;2.30;;;29.00;65.70;;;;;;5053646;28;20443;-71
2022/06/29 13:27:12;;;;;;;6.33;3.00;;;29.00;64.80;;;;;;5053519;28;20842;-70
2022/06/29 13:29:39;;;;;;;2.63;2.43;;;29.10;64.20;;;;;;5053313;28;20426;-71